Air Navigation Services of Czech Republic
Airport: LKKV Updated:  07.02.2023 15:00:32  UTC
 METAR LKKV 07.02. 15:00 ...
METAR LKKV 071500Z VRB03KT CAVOK 01/M08 Q1036=
 TAF LKKV 07.02. 11:00 ...
TAF LKKV 071100Z 0712/0812 11004KT CAVOK=